createdAt,value
2022-11-10T00:04:25.539Z,10.01
2022-11-10T00:09:25.448Z,9.93
2022-11-10T00:14:25.376Z,9.94
2022-11-10T00:19:25.320Z,10.01
2022-11-10T00:24:25.269Z,10.01
2022-11-10T00:29:25.221Z,10.14
2022-11-10T00:34:25.139Z,10.16
2022-11-10T00:39:25.069Z,10.23
2022-11-10T00:44:25.012Z,10.21
2022-11-10T00:49:24.948Z,10.21
2022-11-10T00:54:24.904Z,10.21
2022-11-10T00:59:24.820Z,10.26
2022-11-10T01:04:24.770Z,10.23
2022-11-10T01:09:24.703Z,10.28
2022-11-10T01:14:24.632Z,10.23
2022-11-10T01:19:24.604Z,10.31
2022-11-10T01:24:24.520Z,10.30
2022-11-10T01:29:24.453Z,10.30
2022-11-10T01:34:24.392Z,10.31
2022-11-10T01:39:24.338Z,10.38
2022-11-10T01:44:24.284Z,10.36
2022-11-10T01:49:24.202Z,10.31
2022-11-10T01:54:24.135Z,10.24
2022-11-10T01:59:24.084Z,10.27
2022-11-10T02:04:24.024Z,10.30
2022-11-10T02:09:23.956Z,10.30
2022-11-10T02:14:23.914Z,10.34
2022-11-10T02:19:23.831Z,10.35
2022-11-10T02:24:23.775Z,10.42
2022-11-10T02:29:23.723Z,10.38
2022-11-10T02:34:23.656Z,10.42
2022-11-10T02:39:23.586Z,10.30
2022-11-10T02:44:23.531Z,10.28
2022-11-10T02:49:23.467Z,10.27
2022-11-10T02:54:23.418Z,10.23
2022-11-10T02:59:23.346Z,10.35
2022-11-10T03:04:23.278Z,10.36
2022-11-10T03:09:23.228Z,10.30
2022-11-10T03:14:23.162Z,10.20
2022-11-10T03:19:23.098Z,10.17
2022-11-10T03:24:23.038Z,10.20
2022-11-10T03:29:22.979Z,10.17
2022-11-10T03:34:22.950Z,10.10
2022-11-10T03:39:22.851Z,10.17
2022-11-10T03:44:22.789Z,10.20
2022-11-10T03:49:22.712Z,10.12
2022-11-10T03:54:22.662Z,10.17
2022-11-10T03:59:22.581Z,10.23
2022-11-10T04:04:22.539Z,10.34
2022-11-10T04:09:22.472Z,10.34
2022-11-10T04:14:22.434Z,10.31
2022-11-10T04:19:22.349Z,10.24
2022-11-10T04:24:22.291Z,10.18
2022-11-10T04:29:22.224Z,10.26
2022-11-10T04:34:22.176Z,10.23
2022-11-10T04:39:22.083Z,10.26
2022-11-10T04:44:22.060Z,10.23
2022-11-10T04:49:21.983Z,10.28
2022-11-10T04:54:21.911Z,10.26
2022-11-10T04:59:21.846Z,10.28
2022-11-10T05:04:21.795Z,10.26
2022-11-10T05:09:21.749Z,10.17
2022-11-10T05:14:21.667Z,10.10
2022-11-10T05:19:21.633Z,10.12
2022-11-10T05:24:21.542Z,9.99
2022-11-10T05:29:21.480Z,9.84
2022-11-10T05:34:21.446Z,9.80
2022-11-10T05:39:21.352Z,9.69
2022-11-10T05:44:21.287Z,9.44
2022-11-10T05:49:21.229Z,9.26
2022-11-10T05:54:21.160Z,9.09
2022-11-10T05:59:21.128Z,9.08
2022-11-10T06:04:21.059Z,8.89
2022-11-10T06:09:20.997Z,8.78
2022-11-10T06:14:20.902Z,8.72
2022-11-10T06:19:20.861Z,8.70
2022-11-10T06:24:20.791Z,8.63
2022-11-10T06:29:26.459Z,8.65
2022-11-10T06:34:21.669Z,8.63
2022-11-10T06:39:20.612Z,8.56
2022-11-10T06:44:20.540Z,8.56
2022-11-10T06:49:20.473Z,8.52
2022-11-10T06:54:20.415Z,8.46
2022-11-10T06:59:20.382Z,8.41
2022-11-10T07:04:20.958Z,8.31
2022-11-10T07:09:20.235Z,8.26
2022-11-10T07:14:20.167Z,8.12
2022-11-10T07:19:20.116Z,7.91
2022-11-10T07:24:20.043Z,7.71
2022-11-10T07:29:19.960Z,7.71
2022-11-10T07:34:19.938Z,7.76
2022-11-10T07:39:19.849Z,7.86
2022-11-10T07:44:19.773Z,7.87
2022-11-10T07:49:19.703Z,8.09
2022-11-10T07:54:19.629Z,8.29
2022-11-10T07:59:19.596Z,8.47
2022-11-10T08:04:19.513Z,8.67
2022-11-10T08:09:19.447Z,8.85
2022-11-10T08:14:19.372Z,8.98
2022-11-10T08:19:19.326Z,9.18
2022-11-10T08:24:19.244Z,9.41
2022-11-10T08:29:19.198Z,9.70
2022-11-10T08:34:19.127Z,10.18
2022-11-10T08:39:37.618Z,10.52
2022-11-10T08:44:20.952Z,10.62
2022-11-10T08:49:18.954Z,10.75
2022-11-10T08:54:18.879Z,10.86
2022-11-10T08:59:18.817Z,11.18
2022-11-10T09:04:18.897Z,11.40
2022-11-10T09:09:18.717Z,11.69
2022-11-10T09:14:18.630Z,11.77
2022-11-10T09:19:20.051Z,12.00
2022-11-10T09:24:18.519Z,12.08
2022-11-10T09:29:18.442Z,12.17
2022-11-10T09:34:18.378Z,12.25
2022-11-10T09:39:18.322Z,12.17
2022-11-10T09:44:18.275Z,12.18
2022-11-10T09:49:18.202Z,12.32
2022-11-10T09:54:18.122Z,12.30
2022-11-10T09:59:18.082Z,12.33
2022-11-10T10:04:18.022Z,12.38
2022-11-10T10:09:17.948Z,12.40
2022-11-10T10:14:17.887Z,12.47
2022-11-10T10:19:17.832Z,12.71
2022-11-10T10:24:21.808Z,12.90
2022-11-10T10:29:17.737Z,13.11
2022-11-10T10:34:17.712Z,13.06
2022-11-10T10:39:17.621Z,13.14
2022-11-10T10:44:17.548Z,13.11
2022-11-10T10:49:32.714Z,13.09
2022-11-10T10:54:18.439Z,13.16
2022-11-10T10:59:17.328Z,13.23
2022-11-10T11:04:17.259Z,13.45
2022-11-10T11:09:17.203Z,13.67
2022-11-10T11:14:17.132Z,13.83
2022-11-10T11:19:17.081Z,13.83
2022-11-10T11:24:17.019Z,14.05
2022-11-10T11:29:16.968Z,14.05
2022-11-10T11:34:16.891Z,13.97
2022-11-10T11:39:16.839Z,13.88
2022-11-10T11:44:16.744Z,14.11
2022-11-10T11:49:16.691Z,14.22
2022-11-10T11:54:16.623Z,14.23
2022-11-10T11:59:16.564Z,14.40
2022-11-10T12:04:16.504Z,14.52
2022-11-10T12:09:16.450Z,14.85
2022-11-10T12:14:16.375Z,15.07
2022-11-10T12:19:16.319Z,14.92
2022-11-10T12:24:16.251Z,14.66
2022-11-10T12:29:16.194Z,14.46
2022-11-10T12:34:16.134Z,14.38
2022-11-10T12:39:16.066Z,14.56
2022-11-10T12:44:16.007Z,14.48
2022-11-10T12:49:15.949Z,14.34
2022-11-10T12:54:16.965Z,14.34
2022-11-10T12:59:15.838Z,14.36
2022-11-10T13:04:15.766Z,14.38
2022-11-10T13:09:15.719Z,14.41
2022-11-10T13:14:15.639Z,14.46
2022-11-10T13:19:15.589Z,14.44
2022-11-10T13:24:15.530Z,14.59
2022-11-10T13:29:15.472Z,14.77
2022-11-10T13:34:15.402Z,14.79
2022-11-10T13:39:15.344Z,14.85
2022-11-10T13:44:15.272Z,14.92
2022-11-10T13:49:15.862Z,14.86
2022-11-10T13:54:15.144Z,14.61
2022-11-10T13:59:15.109Z,14.44
2022-11-10T14:04:15.057Z,14.38
2022-11-10T14:09:14.985Z,14.49
2022-11-10T14:14:14.924Z,14.59
2022-11-10T14:19:14.848Z,14.69
2022-11-10T14:24:14.767Z,14.74
2022-11-10T14:29:14.718Z,14.67
2022-11-10T14:34:14.648Z,14.55
2022-11-10T14:39:14.592Z,14.37
2022-11-10T14:44:14.520Z,14.36
2022-11-10T14:49:14.504Z,14.37
2022-11-10T14:54:14.408Z,14.30
2022-11-10T14:59:14.352Z,14.23
2022-11-10T15:04:14.283Z,14.11
2022-11-10T15:09:15.045Z,14.08
2022-11-10T15:14:14.173Z,14.04
2022-11-10T15:19:14.104Z,14.01
2022-11-10T15:24:14.049Z,13.83
2022-11-10T15:29:14.007Z,13.68
2022-11-10T15:34:13.926Z,13.53
2022-11-10T15:39:13.917Z,13.32
2022-11-10T15:44:13.837Z,13.11
2022-11-10T15:49:13.762Z,12.83
2022-11-10T15:54:13.677Z,12.71
2022-11-10T15:59:13.612Z,12.63
2022-11-10T16:04:13.554Z,12.54
2022-11-10T16:09:13.498Z,12.40
2022-11-10T16:14:13.440Z,11.99
2022-11-10T16:19:13.360Z,11.69
2022-11-10T16:24:13.322Z,11.45
2022-11-10T16:29:13.260Z,11.37
2022-11-10T16:34:13.219Z,11.05
2022-11-10T16:39:13.137Z,10.82
2022-11-10T16:44:13.053Z,10.78
2022-11-10T16:49:12.994Z,10.61
2022-11-10T16:54:12.941Z,10.46
2022-11-10T16:59:12.878Z,10.31
2022-11-10T17:04:12.825Z,10.12
2022-11-10T17:09:12.745Z,9.94
2022-11-10T17:14:12.678Z,9.80
2022-11-10T17:19:12.624Z,9.62
2022-11-10T17:24:12.553Z,9.44
2022-11-10T17:29:12.490Z,9.24
2022-11-10T17:34:12.427Z,9.14
2022-11-10T17:39:12.386Z,9.08
2022-11-10T17:44:12.312Z,8.93
2022-11-10T17:49:12.263Z,8.81
2022-11-10T17:54:12.201Z,8.68
2022-11-10T17:59:12.120Z,8.57
2022-11-10T18:04:12.055Z,8.50
2022-11-10T18:09:11.998Z,8.35
2022-11-10T18:14:11.927Z,8.20
2022-11-10T18:19:11.898Z,8.17
2022-11-10T18:24:11.811Z,8.02
2022-11-10T18:29:11.751Z,7.80
2022-11-10T18:34:11.689Z,7.64
2022-11-10T18:39:11.630Z,7.44
2022-11-10T18:44:11.559Z,7.18
2022-11-10T18:49:11.498Z,6.93
2022-11-10T18:54:11.426Z,6.85
2022-11-10T18:59:11.359Z,6.85
2022-11-10T19:04:11.279Z,6.75
2022-11-10T19:09:11.231Z,6.74
2022-11-10T19:14:11.181Z,6.82
2022-11-10T19:19:11.089Z,6.89
2022-11-10T19:24:11.001Z,6.88
2022-11-10T19:29:10.960Z,6.79
2022-11-10T19:34:10.888Z,6.78
2022-11-10T19:39:10.820Z,6.67
2022-11-10T19:44:10.774Z,6.67
2022-11-10T19:49:10.680Z,6.67
2022-11-10T19:54:10.634Z,6.68
2022-11-10T19:59:10.540Z,6.57
2022-11-10T20:04:10.470Z,6.65
2022-11-10T20:09:10.403Z,6.64
2022-11-10T20:14:10.336Z,6.56
2022-11-10T20:19:10.282Z,6.42
2022-11-10T20:24:10.202Z,6.35
2022-11-10T20:29:10.131Z,6.18
2022-11-10T20:34:10.083Z,6.11
2022-11-10T20:39:10.033Z,5.91
2022-11-10T20:44:09.953Z,5.79
2022-11-10T20:49:09.907Z,5.73
2022-11-10T20:54:09.860Z,5.65
2022-11-10T20:59:09.793Z,5.54
2022-11-10T21:04:09.720Z,5.50
2022-11-10T21:09:09.653Z,5.47
2022-11-10T21:14:09.585Z,5.40
2022-11-10T21:19:09.559Z,5.34
2022-11-10T21:24:09.537Z,5.33
2022-11-10T21:29:09.402Z,5.24
2022-11-10T21:34:09.344Z,5.18
2022-11-10T21:39:09.312Z,5.09
2022-11-10T21:44:09.228Z,4.96
2022-11-10T21:49:09.187Z,4.94
2022-11-10T21:54:09.080Z,4.86
2022-11-10T21:59:09.044Z,4.79
2022-11-10T22:04:08.970Z,4.83
2022-11-10T22:09:08.952Z,4.91
2022-11-10T22:14:08.840Z,4.98
2022-11-10T22:19:08.811Z,5.04
2022-11-10T22:24:08.722Z,5.09
2022-11-10T22:29:08.679Z,5.01
2022-11-10T22:34:08.652Z,5.03
2022-11-10T22:39:08.577Z,4.93
2022-11-10T22:44:08.511Z,4.89
2022-11-10T22:49:08.463Z,4.78
2022-11-10T22:54:08.407Z,4.75
2022-11-10T22:59:08.332Z,4.66
2022-11-10T23:04:08.292Z,4.51
2022-11-10T23:09:08.229Z,4.45
2022-11-10T23:14:08.171Z,4.42
2022-11-10T23:19:08.131Z,4.38
2022-11-10T23:24:08.068Z,4.36
2022-11-10T23:29:08.013Z,4.34
2022-11-10T23:34:07.951Z,4.35
2022-11-10T23:39:07.903Z,4.30
2022-11-10T23:44:07.850Z,4.34
2022-11-10T23:49:07.801Z,4.23
2022-11-10T23:54:07.758Z,4.26
2022-11-10T23:59:07.700Z,4.23
